Time;durP1;ratioP1;P1;durP2;ratioP2;P2;SDS_P1;SDS_P2;PMS_P1;PMS_P2;Temp;Humidity;BMP_temperature;BMP_pressure;BME280_temperature;BME280_humidity;BME280_pressure;Samples;Min_cycle;Max_cycle;Signal;HPM_P1;HPM_P2
2023/07/27 00:02:01;;;;;;;9.70;5.40;;;;;;;15.00;76.74;98525.02;223613;181;137120;-60
2023/07/27 00:07:05;;;;;;;7.90;4.60;;;;;;;14.98;76.85;98521.46;223636;182;145402;-61
2023/07/27 00:12:08;;;;;;;5.60;4.20;;;;;;;14.99;76.79;98525.52;223555;182;138300;-63
2023/07/27 00:17:12;;;;;;;12.10;5.40;;;;;;;14.98;76.85;98530.94;223635;181;137352;-61
2023/07/27 00:22:17;;;;;;;10.70;5.10;;;;;;;15.02;76.65;98534.51;223613;182;145259;-62
2023/07/27 00:27:20;;;;;;;10.90;4.90;;;;;;;15.02;76.44;98536.64;223524;181;138125;-63
2023/07/27 00:32:23;;;;;;;7.70;4.80;;;;;;;14.97;76.50;98541.81;223553;181;137318;-61
2023/07/27 00:37:26;;;;;;;7.90;4.60;;;;;;;14.95;76.50;98535.85;223572;182;145778;-59
2023/07/27 00:42:30;;;;;;;6.50;3.80;;;;;;;14.95;76.30;98538.59;223653;181;139804;-61
2023/07/27 00:47:33;;;;;;;7.60;4.40;;;;;;;14.94;76.23;98534.72;223562;182;137150;-60
2023/07/27 00:52:37;;;;;;;8.40;4.20;;;;;;;14.96;76.18;98534.14;223569;181;145459;-62
2023/07/27 00:57:40;;;;;;;6.90;4.40;;;;;;;14.91;76.30;98542.98;223588;182;138880;-64
2023/07/27 01:02:44;;;;;;;10.60;4.70;;;;;;;14.85;76.27;98545.86;223650;182;137326;-62
2023/07/27 01:07:49;;;;;;;8.20;4.40;;;;;;;14.81;76.40;98549.26;223515;181;145794;-63
2023/07/27 01:13:04;;;;;;;8.70;4.60;;;;;;;14.76;76.48;98554.50;223538;182;138215;-63
2023/07/27 01:18:17;;;;;;;6.50;4.60;;;;;;;14.79;76.40;98560.36;223613;182;137805;-63
2023/07/27 01:28:40;;;;;;;8.80;5.00;;;;;;;14.77;76.30;98555.13;222297;190;665699;-60
2023/07/27 01:33:48;;;;;;;6.80;4.30;;;;;;;14.66;76.19;98550.36;223391;183;136888;-61
2023/07/27 01:38:55;;;;;;;12.00;4.80;;;;;;;14.59;76.44;98552.02;223510;183;144787;-62
2023/07/27 01:44:01;;;;;;;7.70;4.90;;;;;;;14.55;76.59;98557.55;223510;183;139218;-60
2023/07/27 01:49:06;;;;;;;14.00;6.10;;;;;;;14.52;76.65;98557.45;223669;183;136697;-62
2023/07/27 01:54:11;;;;;;;;;;;;;;;14.48;76.86;98553.84;223566;184;143421;-61
2023/07/27 01:59:15;;;;;;;11.50;6.20;;;;;;;14.41;76.97;98558.87;223631;183;138213;-60
2023/07/27 02:04:18;;;;;;;13.00;5.90;;;;;;;14.32;77.14;98556.27;223565;181;137457;-61
2023/07/27 02:09:21;;;;;;;10.60;5.10;;;;;;;14.28;77.23;98553.04;223517;182;143537;-61
2023/07/27 02:14:44;;;;;;;10.30;6.10;;;;;;;14.30;77.22;98571.22;223678;181;138753;-60
2023/07/27 02:19:54;;;;;;;12.30;6.20;;;;;;;14.33;77.06;98571.89;223641;182;137600;-60
2023/07/27 02:24:57;;;;;;;10.00;5.90;;;;;;;14.29;76.85;98580.63;223694;182;146819;-61
2023/07/27 02:30:01;;;;;;;13.10;6.20;;;;;;;14.19;76.72;98580.55;223577;182;139089;-62
2023/07/27 02:35:05;;;;;;;8.70;6.00;;;;;;;14.09;76.59;98592.66;223551;181;137334;-61
2023/07/27 02:40:09;;;;;;;7.40;5.10;;;;;;;14.03;76.74;98601.72;223545;182;145771;-66
2023/07/27 02:45:13;;;;;;;12.20;6.20;;;;;;;14.04;76.76;98601.16;223631;181;138499;-62
2023/07/27 02:50:19;;;;;;;12.60;6.30;;;;;;;14.04;76.50;98603.27;223617;181;137435;-60
2023/07/27 02:55:32;;;;;;;13.80;7.00;;;;;;;13.97;76.48;98613.08;223609;182;145950;-57
2023/07/27 03:00:36;;;;;;;12.30;7.10;;;;;;;13.95;76.36;98616.83;223658;181;138059;-61
2023/07/27 03:05:40;;;;;;;9.60;6.00;;;;;;;13.90;76.28;98622.07;223604;181;137562;-60
2023/07/27 03:10:44;;;;;;;10.40;5.80;;;;;;;13.84;76.37;98627.58;223658;182;145093;-60
2023/07/27 03:15:48;;;;;;;9.50;6.10;;;;;;;13.80;76.40;98627.67;223636;181;138930;-59
2023/07/27 03:20:51;;;;;;;15.90;6.70;;;;;;;13.77;76.33;98637.06;223626;181;137365;-60
2023/07/27 03:25:55;;;;;;;13.20;7.00;;;;;;;13.72;76.31;98637.27;223575;181;145891;-60
2023/07/27 03:30:58;;;;;;;14.60;6.10;;;;;;;13.65;76.25;98638.21;223634;181;139021;-60
2023/07/27 03:36:02;;;;;;;11.20;6.40;;;;;;;13.62;76.20;98642.73;223625;181;137768;-60
2023/07/27 03:41:05;;;;;;;9.50;5.70;;;;;;;13.59;76.12;98643.71;223528;181;145631;-61
2023/07/27 03:46:09;;;;;;;12.10;6.00;;;;;;;13.58;76.21;98644.83;223577;182;138135;-61
2023/07/27 03:51:12;;;;;;;14.00;6.50;;;;;;;13.58;76.03;98652.48;223586;181;137748;-61
2023/07/27 03:56:16;;;;;;;9.30;5.80;;;;;;;13.56;75.84;98654.45;223652;182;145437;-61
2023/07/27 04:01:19;;;;;;;10.00;5.80;;;;;;;13.57;75.68;98654.73;223562;181;138665;-60
2023/07/27 04:06:22;;;;;;;10.70;5.80;;;;;;;13.53;75.56;98657.70;223561;182;136871;-61
2023/07/27 04:11:25;;;;;;;10.60;5.30;;;;;;;13.52;75.71;98664.77;223667;181;145177;-59
2023/07/27 04:16:29;;;;;;;9.20;6.00;;;;;;;13.55;75.69;98673.80;223604;181;138479;-60
2023/07/27 04:21:32;;;;;;;10.40;6.20;;;;;;;13.59;75.47;98676.13;223659;181;139127;-57
2023/07/27 04:26:35;;;;;;;9.30;5.90;;;;;;;13.58;75.38;98675.64;223574;181;145097;-59
2023/07/27 04:31:39;;;;;;;8.30;5.50;;;;;;;13.58;75.25;98679.59;223641;181;138101;-59
2023/07/27 04:36:42;;;;;;;9.60;5.60;;;;;;;13.56;75.32;98684.73;223635;181;136738;-60
2023/07/27 04:41:45;;;;;;;11.10;5.50;;;;;;;13.60;75.48;98687.64;223627;182;145292;-60
2023/07/27 04:46:49;;;;;;;16.60;6.40;;;;;;;13.69;75.51;98687.94;223629;181;138462;-60
2023/07/27 04:51:52;;;;;;;10.40;6.50;;;;;;;13.80;75.25;98689.55;223664;182;137176;-60
2023/07/27 05:02:07;;;;;;;10.90;6.10;;;;;;;13.88;75.10;98688.39;219592;192;665962;-58
2023/07/27 05:07:16;;;;;;;10.40;5.30;;;;;;;13.90;74.95;98690.50;223017;183;137605;-59
2023/07/27 05:12:22;;;;;;;12.40;5.30;;;;;;;13.92;74.86;98694.07;223590;183;143790;-60
2023/07/27 05:17:26;;;;;;;10.60;6.10;;;;;;;13.98;74.78;98696.86;223616;182;138869;-60
2023/07/27 05:22:29;;;;;;;10.10;5.70;;;;;;;14.04;74.95;98699.58;223606;182;139434;-60
2023/07/27 05:27:32;;;;;;;10.30;5.40;;;;;;;14.09;74.67;98697.35;223630;183;143296;-60
2023/07/27 05:32:37;;;;;;;16.10;8.50;;;;;;;14.17;74.61;98699.95;223612;183;138184;-61
2023/07/27 05:37:46;;;;;;;12.50;5.00;;;;;;;14.31;74.10;98700.17;223588;182;136764;-59
2023/07/27 05:42:49;;;;;;;11.80;5.20;;;;;;;14.47;73.92;98708.20;223733;183;143287;-60
2023/07/27 05:47:53;;;;;;;35.70;24.00;;;;;;;14.59;73.50;98710.89;223592;183;138299;-60
2023/07/27 05:52:56;;;;;;;12.10;5.50;;;;;;;14.64;73.28;98712.84;223581;183;137069;-61
2023/07/27 05:57:59;;;;;;;11.00;5.60;;;;;;;14.67;73.03;98714.00;223685;182;145297;-59
2023/07/27 06:03:19;;;;;;;9.80;4.90;;;;;;;14.65;72.68;98722.88;223543;183;138825;-62
2023/07/27 06:08:22;;;;;;;10.30;4.90;;;;;;;14.69;72.74;98718.88;223504;183;136915;-62
2023/07/27 06:13:26;;;;;;;11.10;5.30;;;;;;;14.72;72.46;98720.74;223585;183;145681;-63
2023/07/27 06:18:29;;;;;;;8.20;4.50;;;;;;;14.71;72.81;98719.38;223544;184;138212;-62
2023/07/27 06:23:32;;;;;;;9.70;3.60;;;;;;;14.84;73.36;98716.34;223602;183;138360;-60
2023/07/27 06:28:35;;;;;;;7.20;4.10;;;;;;;15.01;72.59;98723.81;223555;183;145210;-62
2023/07/27 06:33:39;;;;;;;10.90;4.80;;;;;;;15.11;72.23;98720.66;223553;183;138303;-60
2023/07/27 06:38:42;;;;;;;6.80;3.70;;;;;;;15.19;71.50;98724.94;223627;183;136762;-60
2023/07/27 06:43:45;;;;;;;159.10;125.90;;;;;;;15.26;71.33;98715.19;223513;183;145542;-60
2023/07/27 06:48:49;;;;;;;8.50;4.40;;;;;;;15.35;70.97;98715.15;223547;183;138151;-62
2023/07/27 06:53:52;;;;;;;8.40;3.50;;;;;;;15.39;70.69;98713.92;223514;183;136820;-63
2023/07/27 06:58:55;;;;;;;8.20;3.40;;;;;;;15.53;70.70;98717.48;223549;183;145502;-63
2023/07/27 07:03:58;;;;;;;6.10;3.20;;;;;;;15.72;70.33;98718.57;223618;183;138843;-62
2023/07/27 07:09:02;;;;;;;6.60;3.00;;;;;;;15.82;69.35;98721.38;223551;183;136731;-61
2023/07/27 07:14:05;;;;;;;5.50;3.00;;;;;;;15.88;68.92;98725.07;223503;183;146975;-62
2023/07/27 07:19:08;;;;;;;5.40;3.20;;;;;;;15.93;68.68;98728.19;223673;183;139510;-62
2023/07/27 07:24:12;;;;;;;5.20;2.50;;;;;;;15.99;68.59;98726.23;223553;183;137678;-62
2023/07/27 07:29:15;;;;;;;5.60;2.70;;;;;;;16.13;68.02;98734.83;223578;183;145315;-64
2023/07/27 07:34:18;;;;;;;5.70;3.00;;;;;;;16.23;66.29;98734.24;223555;184;138286;-63
2023/07/27 07:39:21;;;;;;;7.40;3.00;;;;;;;16.31;65.95;98735.11;223701;181;139443;-62
2023/07/27 07:44:25;;;;;;;9.90;2.50;;;;;;;16.40;64.43;98731.41;223620;181;145859;-62
2023/07/27 07:49:28;;;;;;;3.30;2.50;;;;;;;16.50;63.77;98731.09;223725;181;139212;-63
2023/07/27 07:54:32;;;;;;;4.70;2.80;;;;;;;16.54;63.33;98730.33;223671;181;137796;-60
2023/07/27 07:59:35;;;;;;;7.40;2.80;;;;;;;16.63;63.89;98731.10;223663;181;145224;-63
2023/07/27 08:04:39;;;;;;;5.80;2.70;;;;;;;16.75;63.12;98732.02;223649;181;138247;-60
2023/07/27 08:09:43;;;;;;;5.80;2.60;;;;;;;16.82;62.50;98732.26;223638;181;137895;-63
2023/07/27 08:14:46;;;;;;;4.30;2.50;;;;;;;16.93;62.45;98736.30;223589;182;145165;-64
2023/07/27 08:19:49;;;;;;;3.60;2.10;;;;;;;16.98;61.51;98732.36;223615;181;138098;-62
2023/07/27 08:24:52;;;;;;;3.30;2.20;;;;;;;17.05;61.00;98731.36;223674;181;136925;-60
2023/07/27 08:30:18;;;;;;;4.10;2.10;;;;;;;17.17;60.09;98732.58;223699;181;145781;-62
2023/07/27 08:35:23;;;;;;;5.50;2.30;;;;;;;17.29;59.39;98727.90;223564;181;138256;-61
2023/07/27 08:40:27;;;;;;;3.10;1.90;;;;;;;17.40;59.37;98724.66;223601;181;136367;-61
2023/07/27 08:45:30;;;;;;;3.70;2.10;;;;;;;17.49;59.30;98729.52;223632;181;146237;-61
2023/07/27 08:50:35;;;;;;;3.30;2.00;;;;;;;17.62;59.79;98719.09;223758;181;137387;-61
2023/07/27 08:55:43;;;;;;;6.70;2.60;;;;;;;17.74;59.15;98717.77;223602;181;138055;-62
2023/07/27 09:00:55;;;;;;;7.40;1.70;;;;;;;17.83;58.03;98715.17;223710;181;145679;-65
2023/07/27 09:06:02;;;;;;;3.10;1.60;;;;;;;17.99;57.74;98713.02;223771;181;138882;-60
2023/07/27 09:11:07;;;;;;;2.90;1.90;;;;;;;18.15;55.94;98708.83;223686;181;160203;-65
2023/07/27 09:16:11;;;;;;;;;;;;;;;18.38;56.58;98709.51;223685;181;145545;-66
2023/07/27 09:21:15;;;;;;;3.00;2.10;;;;;;;18.58;56.04;98710.80;223737;181;139002;-63
2023/07/27 10:02:08;;;;;;;10.30;3.60;;;;;;;19.29;52.57;98684.87;220253;193;666083;-61
2023/07/27 10:07:13;;;;;;;6.70;2.90;;;;;;;19.61;52.33;98684.77;223717;182;137613;-60
2023/07/27 10:12:34;;;;;;;5.30;2.30;;;;;;;19.84;52.48;98687.02;223672;182;143572;-59
2023/07/27 10:17:49;;;;;;;5.00;2.00;;;;;;;20.02;51.76;98681.56;223615;182;138668;-65
2023/07/27 10:23:13;;;;;;;4.30;3.00;;;;;;;20.26;51.15;98673.21;223628;182;137661;-64
2023/07/27 10:28:28;;;;;;;6.10;4.20;;;;;;;20.56;49.30;98670.65;223664;182;143475;-60
2023/07/27 10:33:36;;;;;;;11.30;3.30;;;;;;;20.61;49.18;98662.74;223591;181;140071;-60
2023/07/27 10:38:55;;;;;;;7.50;2.50;;;;;;;20.67;49.27;98667.64;223743;181;136539;-60
2023/07/27 10:44:10;;;;;;;50.70;39.70;;;;;;;20.97;48.41;98662.49;223891;180;143959;-64
2023/07/27 10:49:16;;;;;;;3.20;2.30;;;;;;;21.08;47.34;98658.46;223842;181;138150;-64
2023/07/27 10:54:31;;;;;;;4.20;1.90;;;;;;;21.10;45.94;98656.91;223772;180;136699;-63
2023/07/27 11:02:21;;;;;;;3.00;2.00;;;;;;;21.45;45.62;98641.15;221747;192;665602;-62
2023/07/27 11:07:31;;;;;;;3.60;1.50;;;;;;;21.42;45.62;98638.91;223166;186;136973;-61
2023/07/27 11:12:51;;;;;;;5.60;1.70;;;;;;;21.30;45.48;98632.36;223328;186;143299;-65
2023/07/27 11:17:56;;;;;;;4.00;1.90;;;;;;;21.32;45.60;98630.17;223110;186;138643;-63
2023/07/27 11:23:00;;;;;;;8.70;6.10;;;;;;;21.64;45.63;98628.63;223513;184;137477;-62
2023/07/27 11:28:04;;;;;;;5.60;3.30;;;;;;;21.69;44.31;98624.30;223601;183;145491;-61
2023/07/27 11:33:08;;;;;;;2.90;1.70;;;;;;;21.67;43.49;98619.80;223482;184;138930;-64
2023/07/27 11:38:12;;;;;;;4.20;1.70;;;;;;;21.65;44.31;98612.67;223467;184;136554;-62
2023/07/27 11:43:15;;;;;;;3.90;1.70;;;;;;;21.64;43.30;98605.35;223721;183;144442;-60
2023/07/27 11:48:18;;;;;;;4.30;1.80;;;;;;;21.49;43.30;98599.17;223712;183;138368;-62
2023/07/27 11:53:29;;;;;;;2.30;1.60;;;;;;;21.51;44.06;98600.34;223613;183;136337;-62
2023/07/27 12:02:10;;;;;;;2.00;1.60;;;;;;;21.98;43.67;98589.71;221318;193;665823;-62
2023/07/27 12:07:14;;;;;;;11.30;6.30;;;;;;;22.21;43.62;98586.09;223908;181;136842;-60
2023/07/27 12:12:27;;;;;;;3.90;1.80;;;;;;;22.19;42.97;98577.09;223922;181;143445;-60
2023/07/27 12:17:33;;;;;;;4.50;1.70;;;;;;;22.22;42.55;98576.23;223848;181;138266;-64
2023/07/27 12:22:39;;;;;;;2.10;1.60;;;;;;;22.34;42.46;98573.17;223776;181;135851;-64
2023/07/27 12:27:42;;;;;;;4.10;1.40;;;;;;;22.65;41.71;98568.27;223831;181;143586;-63
2023/07/27 12:32:46;;;;;;;4.70;1.70;;;;;;;22.87;42.30;98558.52;223821;181;138305;-63
2023/07/27 12:37:50;;;;;;;6.00;2.20;;;;;;;22.90;41.21;98553.41;223718;181;137500;-60
2023/07/27 12:42:55;;;;;;;5.20;3.00;;;;;;;22.99;40.13;98553.44;223800;181;143472;-61
2023/07/27 12:47:58;;;;;;;2.70;1.70;;;;;;;22.95;40.43;98553.32;223863;181;140660;-61
2023/07/27 12:53:01;;;;;;;3.70;1.90;;;;;;;22.78;40.34;98548.58;223714;181;137096;-61
2023/07/27 12:58:04;;;;;;;5.20;1.90;;;;;;;22.53;40.32;98551.35;223661;181;145633;-61
2023/07/27 13:03:10;;;;;;;4.40;2.00;;;;;;;22.83;41.64;98541.89;223528;182;138213;-63
2023/07/27 13:08:13;;;;;;;4.50;1.50;;;;;;;23.49;40.90;98539.86;223660;182;137063;-66
2023/07/27 13:13:17;;;;;;;5.50;1.70;;;;;;;23.89;39.63;98522.80;223687;181;145166;-63
2023/07/27 13:18:20;;;;;;;36.70;27.30;;;;;;;23.91;39.25;98526.60;223605;181;138831;-64
2023/07/27 13:23:23;;;;;;;4.30;2.30;;;;;;;23.82;38.95;98526.55;223680;181;137657;-64
2023/07/27 13:28:26;;;;;;;3.20;1.30;;;;;;;24.20;38.00;98519.21;223675;182;145750;-61
2023/07/27 13:33:30;;;;;;;5.40;1.60;;;;;;;24.46;36.72;98514.38;223627;182;138242;-63
2023/07/27 13:38:33;;;;;;;11.60;9.60;;;;;;;24.67;35.92;98514.69;223671;181;136907;-61
2023/07/27 13:43:36;;;;;;;5.10;1.90;;;;;;;24.36;36.28;98518.69;223718;181;145464;-64
2023/07/27 13:48:39;;;;;;;4.70;1.70;;;;;;;23.92;36.77;98522.44;223640;181;139366;-62
2023/07/27 13:53:42;;;;;;;2.90;1.80;;;;;;;23.52;37.91;98526.48;223674;182;137402;-62
2023/07/27 13:58:46;;;;;;;2.60;1.70;;;;;;;23.15;38.35;98526.36;223634;181;144922;-63
2023/07/27 14:03:49;;;;;;;3.50;1.70;;;;;;;22.81;39.23;98521.65;223636;181;138430;-63
2023/07/27 14:08:55;;;;;;;3.00;1.80;;;;;;;22.58;40.14;98526.21;223561;181;136758;-61
2023/07/27 14:13:58;;;;;;;2.90;1.50;;;;;;;22.56;40.75;98525.43;223677;181;145385;-63
2023/07/27 14:19:01;;;;;;;3.30;1.70;;;;;;;22.72;41.09;98526.02;223611;182;139170;-61
2023/07/27 14:24:05;;;;;;;4.90;1.60;;;;;;;22.70;40.17;98520.73;223642;181;137350;-61
2023/07/27 14:29:09;;;;;;;3.00;2.30;;;;;;;22.76;39.82;98514.06;223694;182;145159;-63
2023/07/27 14:34:24;;;;;;;114.40;93.80;;;;;;;23.03;40.02;98509.18;223602;181;138900;-64
2023/07/27 14:39:28;;;;;;;10.70;4.80;;;;;;;23.33;40.10;98498.39;223620;181;137664;-64
2023/07/27 14:44:41;;;;;;;4.10;1.80;;;;;;;23.54;38.98;98498.48;223642;181;145270;-63
2023/07/27 14:49:48;;;;;;;11.20;8.20;;;;;;;23.62;38.83;98492.48;223573;181;141934;-61
2023/07/27 14:54:55;;;;;;;23.10;17.50;;;;;;;23.59;38.47;98490.66;223698;181;136408;-61
2023/07/27 15:02:07;;;;;;;3.60;1.60;;;;;;;23.46;37.98;98484.90;221131;193;666298;-61
2023/07/27 15:07:13;;;;;;;2.10;1.50;;;;;;;23.27;38.19;98482.91;223600;183;135989;-62
2023/07/27 15:12:17;;;;;;;2.40;1.40;;;;;;;23.16;38.56;98483.88;223453;184;143918;-61
2023/07/27 15:17:20;;;;;;;2.20;1.50;;;;;;;23.02;36.61;98476.80;222861;184;138766;-60
2023/07/27 15:22:23;;;;;;;1.80;1.30;;;;;;;22.91;36.87;98474.29;222712;184;136428;-62
2023/07/27 15:27:26;;;;;;;7.50;3.70;;;;;;;22.84;37.26;98472.37;223446;183;143828;-61
2023/07/27 15:32:30;;;;;;;2.80;1.40;;;;;;;22.75;37.18;98469.72;223717;182;138391;-61
2023/07/27 15:37:46;;;;;;;2.50;1.30;;;;;;;22.67;37.22;98459.98;223834;183;139125;-62
2023/07/27 15:42:49;;;;;;;2.10;1.30;;;;;;;22.60;37.56;98460.36;223827;182;145922;-62
2023/07/27 15:47:52;;;;;;;4.00;1.50;;;;;;;22.55;37.98;98457.33;223671;183;138223;-62
2023/07/27 15:52:58;;;;;;;4.20;1.60;;;;;;;22.53;38.69;98454.64;223649;183;136892;-62
2023/07/27 15:58:15;;;;;;;6.60;1.70;;;;;;;22.53;38.51;98454.38;223692;183;146405;-61
2023/07/27 16:03:18;;;;;;;1.60;1.40;;;;;;;22.52;38.61;98447.61;223586;184;139086;-61
2023/07/27 16:08:22;;;;;;;24.30;18.60;;;;;;;22.55;38.59;98446.48;223592;183;136650;-62
2023/07/27 16:13:25;;;;;;;2.80;1.60;;;;;;;22.61;37.83;98445.23;223523;184;145125;-60
2023/07/27 16:18:28;;;;;;;3.10;1.40;;;;;;;22.61;37.78;98439.94;223602;183;138507;-61
2023/07/27 16:23:33;;;;;;;1.80;1.30;;;;;;;22.56;37.57;98437.44;223545;183;136080;-61
2023/07/27 16:28:36;;;;;;;6.20;1.40;;;;;;;22.49;37.14;98432.29;223644;183;145817;-61
2023/07/27 16:33:39;;;;;;;3.40;1.40;;;;;;;22.45;37.64;98432.14;223547;183;138704;-61
2023/07/27 16:38:43;;;;;;;1.90;1.30;;;;;;;22.42;37.49;98432.52;223633;182;136442;-62
2023/07/27 16:43:46;;;;;;;1.90;1.30;;;;;;;22.35;37.30;98438.21;223689;182;144930;-63
2023/07/27 16:48:49;;;;;;;2.50;1.70;;;;;;;22.29;37.27;98438.11;223571;183;139164;-62
2023/07/27 16:53:54;;;;;;;4.20;1.70;;;;;;;22.22;37.02;98440.48;223741;183;137301;-62
2023/07/27 17:02:11;;;;;;;2.70;1.70;;;;;;;22.13;37.36;98438.17;219644;193;665878;-60
2023/07/27 17:07:14;;;;;;;3.10;1.80;;;;;;;22.02;37.25;98437.85;223593;184;136274;-61
2023/07/27 17:12:18;;;;;;;3.30;1.50;;;;;;;21.97;37.78;98442.79;223607;183;143397;-61
2023/07/27 17:17:21;;;;;;;3.60;1.70;;;;;;;21.94;38.18;98435.11;223532;184;139255;-61
2023/07/27 17:22:24;;;;;;;10.50;3.70;;;;;;;21.93;38.25;98438.88;223606;183;136374;-61
2023/07/27 17:27:27;;;;;;;2.90;1.60;;;;;;;21.91;38.56;98449.70;223757;182;143403;-60
2023/07/27 17:32:31;;;;;;;4.50;2.00;;;;;;;21.92;38.91;98445.16;223679;182;138964;-64
2023/07/27 17:37:34;;;;;;;3.90;1.60;;;;;;;21.91;39.37;98452.32;223890;182;138691;-64
2023/07/27 17:42:37;;;;;;;229.20;177.70;;;;;;;21.88;40.06;98451.75;223747;182;143257;-62
2023/07/27 17:47:41;;;;;;;11.50;8.50;;;;;;;21.82;39.53;98455.20;223567;181;138730;-61
2023/07/27 17:52:44;;;;;;;7.80;2.80;;;;;;;21.77;39.83;98460.67;223680;182;136758;-61
2023/07/27 17:57:47;;;;;;;4.70;3.50;;;;;;;21.72;40.14;98457.39;223740;182;145354;-61
2023/07/27 18:02:50;;;;;;;5.90;2.00;;;;;;;21.67;41.17;98454.05;223641;183;138842;-61
2023/07/27 18:07:56;;;;;;;4.10;1.90;;;;;;;21.49;42.24;98448.62;223607;183;136883;-60
2023/07/27 18:13:00;;;;;;;33.20;21.40;;;;;;;21.31;44.10;98449.97;223715;183;145215;-60
2023/07/27 18:18:03;;;;;;;89.80;67.10;;;;;;;21.14;45.64;98448.11;223653;182;140852;-60
2023/07/27 18:23:07;;;;;;;5.40;3.60;;;;;;;20.92;47.23;98452.41;223593;183;137725;-61
2023/07/27 18:28:10;;;;;;;6.40;2.50;;;;;;;20.69;46.59;98450.61;223678;183;145471;-61
2023/07/27 18:33:13;;;;;;;11.40;3.20;;;;;;;20.52;47.64;98447.23;223538;183;139027;-63
2023/07/27 18:38:16;;;;;;;6.70;2.50;;;;;;;20.36;48.27;98447.45;223632;184;137059;-64
2023/07/27 18:43:19;;;;;;;7.00;2.90;;;;;;;20.21;49.02;98444.27;223657;183;146018;-61
2023/07/27 18:48:23;;;;;;;7.80;3.00;;;;;;;20.06;49.08;98450.73;223585;183;138941;-64
2023/07/27 18:53:26;;;;;;;8.70;3.00;;;;;;;19.95;49.83;98451.31;223722;183;138391;-62
2023/07/27 18:58:29;;;;;;;12.40;3.60;;;;;;;19.82;50.55;98450.70;223650;183;145309;-62
2023/07/27 19:03:36;;;;;;;42.80;33.30;;;;;;;19.75;51.46;98454.38;223587;182;138833;-61
2023/07/27 19:08:39;;;;;;;101.40;80.90;;;;;;;19.74;52.19;98449.98;223633;182;137585;-62
2023/07/27 19:13:43;;;;;;;15.70;5.70;;;;;;;19.73;52.76;98448.28;223682;183;145174;-63
2023/07/27 19:18:46;;;;;;;7.30;3.80;;;;;;;19.55;52.62;98446.47;223619;182;138381;-62
2023/07/27 19:23:53;;;;;;;6.60;3.50;;;;;;;19.35;52.98;98442.98;223753;182;137753;-61
2023/07/27 19:28:56;;;;;;;8.40;4.00;;;;;;;19.21;53.36;98435.53;223740;182;144388;-62
2023/07/27 19:33:59;;;;;;;10.30;3.70;;;;;;;19.07;54.05;98434.30;223589;182;138406;-61
2023/07/27 19:39:03;;;;;;;10.90;3.90;;;;;;;18.97;55.10;98435.73;223636;182;136846;-61
2023/07/27 19:44:07;;;;;;;7.90;3.70;;;;;;;18.87;55.91;98438.42;223794;182;151585;-60
2023/07/27 19:49:10;;;;;;;8.60;3.50;;;;;;;18.81;56.60;98439.63;223670;182;139467;-61
2023/07/27 19:54:13;;;;;;;12.30;4.50;;;;;;;18.75;57.02;98439.55;223745;182;136948;-62
2023/07/27 19:59:17;;;;;;;10.00;3.90;;;;;;;18.68;57.53;98434.11;223781;182;145287;-61
2023/07/27 20:04:23;;;;;;;9.30;4.10;;;;;;;18.59;58.18;98435.24;223641;182;138898;-61
2023/07/27 20:09:26;;;;;;;9.20;4.20;;;;;;;18.53;58.67;98433.75;223638;182;136977;-61
2023/07/27 20:14:29;;;;;;;11.00;4.00;;;;;;;18.45;58.75;98431.66;223767;182;145844;-61
2023/07/27 20:19:38;;;;;;;12.50;4.00;;;;;;;18.39;59.38;98434.48;223759;181;138853;-61
2023/07/27 20:24:41;;;;;;;11.70;4.60;;;;;;;18.33;59.85;98437.48;223682;181;137384;-61
2023/07/27 20:29:46;;;;;;;7.30;3.90;;;;;;;18.24;60.25;98444.48;223574;182;146954;-61
2023/07/27 20:34:49;;;;;;;13.10;4.80;;;;;;;18.18;60.98;98443.85;223725;182;140199;-61
2023/07/27 20:39:52;;;;;;;12.60;4.80;;;;;;;18.12;61.58;98438.33;223712;182;137785;-61
2023/07/27 20:44:55;;;;;;;9.70;4.90;;;;;;;18.06;62.01;98436.30;223664;181;145188;-62
2023/07/27 20:49:58;;;;;;;16.40;5.00;;;;;;;18.00;62.70;98428.08;223726;182;139188;-61
2023/07/27 20:55:02;;;;;;;13.80;4.70;;;;;;;17.95;63.16;98426.83;223861;182;136958;-61
2023/07/27 21:00:06;;;;;;;13.60;5.10;;;;;;;17.89;63.50;98419.35;223707;182;145752;-61
2023/07/27 21:05:09;;;;;;;10.50;4.40;;;;;;;17.83;64.01;98419.27;223686;182;138489;-61
2023/07/27 21:10:13;;;;;;;9.80;4.00;;;;;;;17.77;64.53;98419.17;223654;182;137575;-61
2023/07/27 21:15:16;;;;;;;18.30;4.80;;;;;;;17.76;65.00;98415.09;223771;182;145022;-61
2023/07/27 21:20:19;;;;;;;17.30;5.00;;;;;;;17.80;65.04;98417.05;223666;181;138203;-61
2023/07/27 21:25:23;;;;;;;14.80;4.80;;;;;;;17.81;65.18;98414.11;223734;182;137364;-61
2023/07/27 21:30:26;;;;;;;18.20;4.80;;;;;;;17.82;65.28;98415.93;223675;182;146159;-61
2023/07/27 21:35:29;;;;;;;20.40;5.10;;;;;;;17.83;65.69;98410.65;223685;182;138334;-60
2023/07/27 21:40:35;;;;;;;19.10;5.10;;;;;;;17.85;65.82;98415.65;223739;182;137555;-61
2023/07/27 21:45:38;;;;;;;17.30;5.00;;;;;;;17.86;66.25;98418.38;223713;182;145806;-60
2023/07/27 21:50:50;;;;;;;9.00;4.20;;;;;;;17.84;65.84;98415.55;223746;182;139084;-61
2023/07/27 21:56:50;;;;;;;10.80;3.70;;;;;;;17.84;65.78;98410.55;221099;193;666674;-63
2023/07/27 22:01:54;;;;;;;9.40;4.00;;;;;;;17.82;65.99;98403.34;223607;183;136048;-61
2023/07/27 22:06:57;;;;;;;12.30;4.00;;;;;;;17.83;66.28;98399.83;223715;183;144413;-63
2023/07/27 22:12:00;;;;;;;10.20;3.70;;;;;;;17.89;66.24;98394.74;223793;183;138770;-63
2023/07/27 22:17:04;;;;;;;11.20;4.00;;;;;;;17.97;65.92;98385.45;223662;183;137035;-62
2023/07/27 22:22:10;;;;;;;13.00;4.10;;;;;;;18.02;65.57;98383.34;223681;182;143751;-63
2023/07/27 22:27:13;;;;;;;13.60;4.60;;;;;;;18.03;65.26;98386.15;223671;182;138176;-63
2023/07/27 22:32:16;;;;;;;11.30;4.20;;;;;;;18.03;65.08;98389.72;223791;183;136889;-62
2023/07/27 22:37:19;;;;;;;9.20;4.00;;;;;;;18.02;65.21;98386.45;223762;182;143509;-62
2023/07/27 22:42:22;;;;;;;11.30;4.00;;;;;;;18.02;65.41;98382.48;223683;182;138140;-63
2023/07/27 22:47:26;;;;;;;9.50;4.20;;;;;;;18.02;65.72;98379.02;223782;182;136936;-63
2023/07/27 22:52:29;;;;;;;10.70;4.10;;;;;;;18.01;65.90;98374.47;223752;182;145506;-63
2023/07/27 22:57:32;;;;;;;14.00;4.40;;;;;;;18.00;65.93;98372.46;223716;182;138534;-63
2023/07/27 23:02:35;;;;;;;12.30;4.30;;;;;;;17.99;66.24;98371.84;223803;182;136899;-64
2023/07/27 23:07:39;;;;;;;18.00;4.80;;;;;;;18.01;66.41;98366.12;223765;181;145249;-63
2023/07/27 23:12:44;;;;;;;24.30;5.60;;;;;;;18.07;66.55;98357.20;223759;181;139959;-63
2023/07/27 23:17:50;;;;;;;15.60;5.10;;;;;;;18.14;66.66;98357.34;223805;182;137090;-63
2023/07/27 23:22:53;;;;;;;22.80;5.60;;;;;;;18.15;66.73;98352.71;223692;181;145577;-63
2023/07/27 23:27:57;;;;;;;20.00;5.20;;;;;;;18.17;66.70;98347.50;223740;181;138557;-63
2023/07/27 23:33:01;;;;;;;10.10;4.00;;;;;;;18.16;66.45;98344.71;223770;181;136702;-63
2023/07/27 23:38:05;;;;;;;12.60;4.30;;;;;;;18.13;66.57;98347.00;223667;182;145111;-62
2023/07/27 23:43:08;;;;;;;12.60;4.40;;;;;;;18.10;66.55;98349.98;223830;181;140058;-61
2023/07/27 23:48:11;;;;;;;13.70;4.90;;;;;;;18.07;66.49;98347.48;223640;181;137158;-62
2023/07/27 23:53:15;;;;;;;16.30;4.40;;;;;;;18.05;66.43;98345.20;223707;181;145311;-62
2023/07/27 23:58:18;;;;;;;13.30;4.20;;;;;;;18.02;66.61;98344.66;223765;181;140006;-63
